Terminal Aerodrome Forecast
Issued by NWS

Home | Current Version | Previous Version | Graphics & Text | Print | Product List | Glossary On
Versions: 1 2 3 4 5 6 7 8 9 10 11 12 13 14 15 16 17 18
000
FTUS43 KABR 271130
TAFPIR
TAF
KPIR 271130Z 2712/2812 30006KT P6SM VCSH OVC070
      TEMPO 2712/2715 -SHRA BKN050 OVC080
     FM271500 24007KT P6SM BKN100
     FM271800 26009KT P6SM SCT140=

USA.gov is the U.S. government's official web portal to all federal, state and local government web resources and services.